Daily Tabular Data
[Select Refresh to Update]


4/20/19
Time         Wind Dir   Wind Spd  Wind Gust     Hum In   Humidity    Temp In       Temp  Raw Barom   Tot Rain Wind Chill Heat Ix In Heat Index  Dew Point  DailyRain   HourRain   RainRate
                            mph        mph          %          %         F         F         in         in         F         F         F         F         in         in      in/hr
12:00am            45          1          6         49         90       73.0       57.4      29.10      18.01       57.4       73.7       63.0       54.5       0.00       0.00      0.000
12:30am            90          1          5         49         90       72.9       57.2      29.11      18.01       57.2       73.6       62.8       54.3       0.00       0.00      0.000
1:00am            248          0          4         49         91       72.8       56.6      29.12      18.01       56.6       73.5       62.4       54.0       0.00       0.00      0.000
1:30am            202          0          3         49         92       72.6       56.4      29.11      18.01       56.4       73.3       62.3       54.1       0.00       0.00      0.000
2:00am            248          1          4         49         93       72.4       55.7      29.11      18.01       55.7       73.1       61.8       53.7       0.00       0.00      0.000
2:30am            248          0          0         49         93       72.2       56.1      29.10      18.01       56.1       72.9       62.2       54.1       0.00       0.00      0.000
3:00am            248          0          0         49         91       72.1       56.7      29.09      18.01       56.7       72.8       62.5       54.1       0.00       0.00      0.000
3:30am            248          0          0         49         90       71.9       56.8      29.10      18.01       56.8       72.6       62.4       53.9       0.00       0.00      0.000
4:00am            248          0          0         49         87       71.6       56.8      29.10      18.01       56.8       72.3       62.0       53.0       0.00       0.00      0.000
4:30am            248          0          2         49         90       71.4       56.1      29.10      18.01       56.1       72.1       61.7       53.2       0.00       0.00      0.000
5:00am            112          1          7         49         89       71.4       56.6      29.08      18.01       56.6       72.1       62.1       53.4       0.00       0.00      0.000
5:30am             90          1          6         49         86       71.2       57.0      29.07      18.01       57.0       71.9       62.1       52.9       0.00       0.00      0.000
6:00am            180          1          6         49         88       71.1       56.7      29.08      18.01       56.7       71.8       62.0       53.2       0.00       0.00      0.000
6:30am             90          1          6         49         85       71.0       56.7      29.09      18.01       56.7       71.7       61.6       52.2       0.00       0.00      0.000
7:00am            112          1          8         49         82       70.8       56.5      29.10      18.01       56.5       71.5       61.0       51.1       0.00       0.00      0.000
7:30am            112          1          8         48         82       70.7       56.7      29.12      18.01       56.7       71.3       61.2       51.3       0.00       0.00      0.000
8:00am             68          2          8         48         79       70.6       57.4      29.12      18.01       57.4       71.2       61.5       50.9       0.00       0.00      0.000
8:30am             90          2          7         46         76       70.6       58.1      29.13      18.01       58.1       71.0       61.8       50.6       0.00       0.00      0.000
9:00am             90          3          8         47         73       68.1       58.4      29.14      18.01       58.4       68.6       61.7       49.8       0.00       0.00      0.000
9:30am             90          3         12         49         72       66.8       59.4      29.13      18.01       59.4       67.5       62.6       50.4       0.00       0.00      0.000
10:00am            90          3         10         50         70       66.6       61.3      29.15      18.01       61.3       67.4       64.3       51.4       0.00       0.00      0.000
11:00am            98          6         10         48         62       68.2       64.7      29.17      18.01       64.7       68.8       66.7       51.4       0.00       0.00      0.000
11:30am            46          0         10         48         63       68.9       64.6      29.17      18.01       64.6       69.5       66.7       51.7       0.00       0.00      0.000
12:00pm           238          3         10         51         72       69.2       62.0      29.17      18.01       62.0       70.1       65.2       52.9       0.00       0.00      0.000
12:30pm           248          4          9         50         73       68.9       60.7      29.17      18.01       60.7       69.7       64.0       52.0       0.00       0.00      0.000
1:00pm            247          2          8         51         75       68.3       59.7      29.17      18.01       59.7       69.2       63.3       51.8       0.00       0.00      0.000
1:30pm            260          1          6         51         72       68.5       61.3      29.15      18.01       61.3       69.4       64.5       52.2       0.00       0.00      0.000
2:00pm            240          5          8         50         71       68.9       62.1      29.16      18.01       62.1       69.7       65.2       52.6       0.00       0.00      0.000
2:30pm            207          1          6         50         68       69.1       63.9      29.15      18.01       63.9       69.9       66.6       53.1       0.00       0.00      0.000
3:00pm            154          1          8         50         67       69.3       64.7      29.14      18.01       64.7       70.1       67.3       53.5       0.00       0.00      0.000
3:30pm            254          4          9         50         67       69.8       64.1      29.14      18.01       64.1       70.6       66.7       52.9       0.00       0.00      0.000
4:00pm            101          4          5         49         64       70.3       66.4      29.12      18.01       66.4       71.0       68.7       53.9       0.00       0.00      0.000
4:30pm            194          2         11         49         63       70.2       66.3      29.12      18.01       66.3       70.9       68.4       53.3       0.00       0.00      0.000
5:00pm            165          0         10         49         63       70.4       66.7      29.12      18.01       66.7       71.1       68.8       53.7       0.00       0.00      0.000
5:30pm            178          2         10         49         64       70.4       64.7      29.13      18.01       64.7       71.1       67.0       52.3       0.00       0.00      0.000
6:00pm            239          2          7         49         70       70.0       62.2      29.13      18.01       62.2       70.7       65.2       52.3       0.00       0.00      0.000
6:30pm            190          0          9         48         74       70.2       60.6      29.13      18.01       60.6       70.8       64.0       52.3       0.00       0.00      0.000
7:00pm            202          1          3         48         75       70.3       59.7      29.13      18.01       59.7       70.9       63.3       51.8       0.00       0.00      0.000
7:30pm            198          0          6         48         78       70.3       58.5      29.14      18.01       58.5       70.9       62.5       51.7       0.00       0.00      0.000
8:00pm            167          1          4         47         81       71.0       57.2      29.14      18.01       57.2       71.5       61.6       51.4       0.00       0.00      0.000